sensor_id;sensor_type;location;lat;lon;timestamp;temperature;humidity
7218;DHT22;3650;53.580;10.094;2022-11-30T00:00:33;7.80;92.30
7218;DHT22;3650;53.580;10.094;2022-11-30T00:03:01;7.90;92.30
7218;DHT22;3650;53.580;10.094;2022-11-30T00:05:28;7.80;92.30
7218;DHT22;3650;53.580;10.094;2022-11-30T00:07:55;7.80;92.30
7218;DHT22;3650;53.580;10.094;2022-11-30T00:10:22;7.80;92.10
7218;DHT22;3650;53.580;10.094;2022-11-30T00:12:49;7.80;92.10
7218;DHT22;3650;53.580;10.094;2022-11-30T00:15:16;7.80;92.30
7218;DHT22;3650;53.580;10.094;2022-11-30T00:17:45;7.90;92.40
7218;DHT22;3650;53.580;10.094;2022-11-30T00:20:13;7.90;92.30
7218;DHT22;3650;53.580;10.094;2022-11-30T00:22:40;7.90;92.30
7218;DHT22;3650;53.580;10.094;2022-11-30T00:25:07;7.90;92.20
7218;DHT22;3650;53.580;10.094;2022-11-30T00:27:34;7.90;92.10
7218;DHT22;3650;53.580;10.094;2022-11-30T00:30:01;7.90;92.00
7218;DHT22;3650;53.580;10.094;2022-11-30T00:32:28;7.90;92.00
7218;DHT22;3650;53.580;10.094;2022-11-30T00:34:56;7.90;92.10
7218;DHT22;3650;53.580;10.094;2022-11-30T00:37:23;7.90;92.10
7218;DHT22;3650;53.580;10.094;2022-11-30T00:39:50;7.90;92.00
7218;DHT22;3650;53.580;10.094;2022-11-30T00:42:17;7.90;92.10
7218;DHT22;3650;53.580;10.094;2022-11-30T00:44:44;7.90;92.30
7218;DHT22;3650;53.580;10.094;2022-11-30T00:47:12;7.90;92.30
7218;DHT22;3650;53.580;10.094;2022-11-30T00:49:38;7.90;92.20
7218;DHT22;3650;53.580;10.094;2022-11-30T00:52:06;7.90;92.10
7218;DHT22;3650;53.580;10.094;2022-11-30T00:54:33;7.90;92.00
7218;DHT22;3650;53.580;10.094;2022-11-30T00:57:00;7.90;91.90
7218;DHT22;3650;53.580;10.094;2022-11-30T00:59:27;7.90;91.90
7218;DHT22;3650;53.580;10.094;2022-11-30T01:01:53;7.80;91.50
7218;DHT22;3650;53.580;10.094;2022-11-30T01:04:20;7.80;92.00
7218;DHT22;3650;53.580;10.094;2022-11-30T01:06:48;7.80;92.10
7218;DHT22;3650;53.580;10.094;2022-11-30T01:09:16;7.80;92.10
7218;DHT22;3650;53.580;10.094;2022-11-30T01:11:42;7.80;92.20
7218;DHT22;3650;53.580;10.094;2022-11-30T01:14:09;7.80;92.20
7218;DHT22;3650;53.580;10.094;2022-11-30T01:16:36;7.80;92.30
7218;DHT22;3650;53.580;10.094;2022-11-30T01:19:03;7.90;92.30
7218;DHT22;3650;53.580;10.094;2022-11-30T01:21:30;7.80;92.20
7218;DHT22;3650;53.580;10.094;2022-11-30T01:23:57;7.90;92.30
7218;DHT22;3650;53.580;10.094;2022-11-30T01:26:25;7.80;92.10
7218;DHT22;3650;53.580;10.094;2022-11-30T01:28:54;7.80;91.70
7218;DHT22;3650;53.580;10.094;2022-11-30T01:31:22;7.70;92.00
7218;DHT22;3650;53.580;10.094;2022-11-30T01:33:50;7.70;92.20
7218;DHT22;3650;53.580;10.094;2022-11-30T01:36:19;7.70;92.40
7218;DHT22;3650;53.580;10.094;2022-11-30T01:38:47;7.70;92.50
7218;DHT22;3650;53.580;10.094;2022-11-30T01:41:17;7.70;92.60
7218;DHT22;3650;53.580;10.094;2022-11-30T01:43:47;7.70;92.70
7218;DHT22;3650;53.580;10.094;2022-11-30T01:46:33;7.70;92.70
7218;DHT22;3650;53.580;10.094;2022-11-30T01:49:10;7.70;92.50
7218;DHT22;3650;53.580;10.094;2022-11-30T01:51:41;7.70;92.50
7218;DHT22;3650;53.580;10.094;2022-11-30T01:54:11;7.70;92.60
7218;DHT22;3650;53.580;10.094;2022-11-30T01:56:41;7.70;92.40
7218;DHT22;3650;53.580;10.094;2022-11-30T01:59:11;7.70;92.50
7218;DHT22;3650;53.580;10.094;2022-11-30T02:01:38;7.70;92.60
7218;DHT22;3650;53.580;10.094;2022-11-30T02:04:07;7.70;92.70
7218;DHT22;3650;53.580;10.094;2022-11-30T02:06:35;7.70;92.70
7218;DHT22;3650;53.580;10.094;2022-11-30T02:09:02;7.80;92.60
7218;DHT22;3650;53.580;10.094;2022-11-30T02:11:29;7.70;92.50
7218;DHT22;3650;53.580;10.094;2022-11-30T02:14:11;7.70;92.50
7218;DHT22;3650;53.580;10.094;2022-11-30T02:16:50;7.80;92.40
7218;DHT22;3650;53.580;10.094;2022-11-30T02:22:39;7.70;92.40
7218;DHT22;3650;53.580;10.094;2022-11-30T02:25:14;7.80;92.50
7218;DHT22;3650;53.580;10.094;2022-11-30T02:27:55;7.80;92.40
7218;DHT22;3650;53.580;10.094;2022-11-30T02:30:26;7.80;92.30
7218;DHT22;3650;53.580;10.094;2022-11-30T02:32:57;7.70;92.30
7218;DHT22;3650;53.580;10.094;2022-11-30T02:35:28;7.80;92.30
7218;DHT22;3650;53.580;10.094;2022-11-30T02:37:56;7.80;92.40
7218;DHT22;3650;53.580;10.094;2022-11-30T02:40:24;7.80;92.40
7218;DHT22;3650;53.580;10.094;2022-11-30T02:42:51;7.80;92.40
7218;DHT22;3650;53.580;10.094;2022-11-30T02:45:24;7.80;92.40
7218;DHT22;3650;53.580;10.094;2022-11-30T02:47:59;7.80;92.40
7218;DHT22;3650;53.580;10.094;2022-11-30T02:50:34;7.80;92.40
7218;DHT22;3650;53.580;10.094;2022-11-30T02:53:03;7.80;92.30
7218;DHT22;3650;53.580;10.094;2022-11-30T02:55:30;7.70;92.00
7218;DHT22;3650;53.580;10.094;2022-11-30T02:57:57;7.70;92.00
7218;DHT22;3650;53.580;10.094;2022-11-30T03:00:24;7.70;92.30
7218;DHT22;3650;53.580;10.094;2022-11-30T03:02:50;7.70;92.50
7218;DHT22;3650;53.580;10.094;2022-11-30T03:05:19;7.70;92.60
7218;DHT22;3650;53.580;10.094;2022-11-30T03:07:45;7.70;92.40
7218;DHT22;3650;53.580;10.094;2022-11-30T03:10:12;7.70;92.50
7218;DHT22;3650;53.580;10.094;2022-11-30T03:12:39;7.70;92.70
7218;DHT22;3650;53.580;10.094;2022-11-30T03:15:06;7.60;92.80
7218;DHT22;3650;53.580;10.094;2022-11-30T03:17:33;7.60;93.00
7218;DHT22;3650;53.580;10.094;2022-11-30T03:20:00;7.60;93.10
7218;DHT22;3650;53.580;10.094;2022-11-30T03:22:28;7.70;93.20
7218;DHT22;3650;53.580;10.094;2022-11-30T03:24:55;7.70;93.30
7218;DHT22;3650;53.580;10.094;2022-11-30T03:27:22;7.70;93.30
7218;DHT22;3650;53.580;10.094;2022-11-30T03:29:48;7.70;93.30
7218;DHT22;3650;53.580;10.094;2022-11-30T03:32:15;7.70;93.30
7218;DHT22;3650;53.580;10.094;2022-11-30T03:34:42;7.70;93.20
7218;DHT22;3650;53.580;10.094;2022-11-30T03:37:09;7.70;93.10
7218;DHT22;3650;53.580;10.094;2022-11-30T03:39:37;7.70;93.10
7218;DHT22;3650;53.580;10.094;2022-11-30T03:42:04;7.80;93.10
7218;DHT22;3650;53.580;10.094;2022-11-30T03:44:31;7.70;93.00
7218;DHT22;3650;53.580;10.094;2022-11-30T03:46:57;7.70;93.00
7218;DHT22;3650;53.580;10.094;2022-11-30T03:49:24;7.70;93.00
7218;DHT22;3650;53.580;10.094;2022-11-30T03:51:51;7.80;93.10
7218;DHT22;3650;53.580;10.094;2022-11-30T03:54:18;7.80;93.10
7218;DHT22;3650;53.580;10.094;2022-11-30T03:56:47;7.80;92.90
7218;DHT22;3650;53.580;10.094;2022-11-30T03:59:14;7.80;92.90
7218;DHT22;3650;53.580;10.094;2022-11-30T04:01:41;7.80;93.00
7218;DHT22;3650;53.580;10.094;2022-11-30T04:04:08;7.80;93.00
7218;DHT22;3650;53.580;10.094;2022-11-30T04:06:34;7.80;93.00
7218;DHT22;3650;53.580;10.094;2022-11-30T04:09:01;7.80;93.00
7218;DHT22;3650;53.580;10.094;2022-11-30T04:11:28;7.80;93.00
7218;DHT22;3650;53.580;10.094;2022-11-30T04:13:56;7.80;93.40
7218;DHT22;3650;53.580;10.094;2022-11-30T04:16:23;7.80;93.00
7218;DHT22;3650;53.580;10.094;2022-11-30T04:18:50;7.80;93.00
7218;DHT22;3650;53.580;10.094;2022-11-30T04:21:17;7.80;93.00
7218;DHT22;3650;53.580;10.094;2022-11-30T04:23:43;7.80;93.00
7218;DHT22;3650;53.580;10.094;2022-11-30T04:26:13;7.80;93.30
7218;DHT22;3650;53.580;10.094;2022-11-30T04:28:41;7.80;92.90
7218;DHT22;3650;53.580;10.094;2022-11-30T04:31:09;7.80;93.00
7218;DHT22;3650;53.580;10.094;2022-11-30T04:33:37;7.80;93.00
7218;DHT22;3650;53.580;10.094;2022-11-30T04:36:05;7.80;93.00
7218;DHT22;3650;53.580;10.094;2022-11-30T04:38:34;7.80;93.00
7218;DHT22;3650;53.580;10.094;2022-11-30T04:41:06;7.80;93.00
7218;DHT22;3650;53.580;10.094;2022-11-30T04:43:33;7.80;93.00
7218;DHT22;3650;53.580;10.094;2022-11-30T04:46:00;7.80;93.00
7218;DHT22;3650;53.580;10.094;2022-11-30T04:48:28;7.80;92.80
7218;DHT22;3650;53.580;10.094;2022-11-30T04:50:59;7.80;92.90
7218;DHT22;3650;53.580;10.094;2022-11-30T04:53:26;7.70;93.10
7218;DHT22;3650;53.580;10.094;2022-11-30T04:55:53;7.70;93.20
7218;DHT22;3650;53.580;10.094;2022-11-30T04:58:20;7.80;93.30
7218;DHT22;3650;53.580;10.094;2022-11-30T05:00:47;7.80;93.20
7218;DHT22;3650;53.580;10.094;2022-11-30T05:03:14;7.70;93.10
7218;DHT22;3650;53.580;10.094;2022-11-30T05:05:42;7.70;92.90
7218;DHT22;3650;53.580;10.094;2022-11-30T05:08:09;7.70;93.20
7218;DHT22;3650;53.580;10.094;2022-11-30T05:10:36;7.70;93.40
7218;DHT22;3650;53.580;10.094;2022-11-30T05:13:02;7.60;93.20
7218;DHT22;3650;53.580;10.094;2022-11-30T05:15:30;7.60;93.60
7218;DHT22;3650;53.580;10.094;2022-11-30T05:17:58;7.60;93.80
7218;DHT22;3650;53.580;10.094;2022-11-30T05:20:25;7.60;93.90
7218;DHT22;3650;53.580;10.094;2022-11-30T05:22:53;7.60;93.90
7218;DHT22;3650;53.580;10.094;2022-11-30T05:25:20;7.70;94.00
7218;DHT22;3650;53.580;10.094;2022-11-30T05:27:47;7.60;93.70
7218;DHT22;3650;53.580;10.094;2022-11-30T05:30:14;7.60;93.70
7218;DHT22;3650;53.580;10.094;2022-11-30T05:32:41;7.60;93.90
7218;DHT22;3650;53.580;10.094;2022-11-30T05:35:08;7.60;94.10
7218;DHT22;3650;53.580;10.094;2022-11-30T05:37:35;7.60;94.20
7218;DHT22;3650;53.580;10.094;2022-11-30T05:40:04;7.60;94.30
7218;DHT22;3650;53.580;10.094;2022-11-30T05:42:31;7.60;94.10
7218;DHT22;3650;53.580;10.094;2022-11-30T05:44:58;7.50;93.70
7218;DHT22;3650;53.580;10.094;2022-11-30T05:47:25;7.50;94.00
7218;DHT22;3650;53.580;10.094;2022-11-30T05:49:52;7.50;94.00
7218;DHT22;3650;53.580;10.094;2022-11-30T05:52:19;7.50;94.50
7218;DHT22;3650;53.580;10.094;2022-11-30T05:54:46;7.50;94.70
7218;DHT22;3650;53.580;10.094;2022-11-30T05:57:14;7.50;94.40
7218;DHT22;3650;53.580;10.094;2022-11-30T05:59:41;7.40;94.40
7218;DHT22;3650;53.580;10.094;2022-11-30T06:02:07;7.40;94.80
7218;DHT22;3650;53.580;10.094;2022-11-30T06:04:34;7.40;94.90
7218;DHT22;3650;53.580;10.094;2022-11-30T06:07:01;7.40;94.80
7218;DHT22;3650;53.580;10.094;2022-11-30T06:09:29;7.30;95.10
7218;DHT22;3650;53.580;10.094;2022-11-30T06:11:55;7.30;95.20
7218;DHT22;3650;53.580;10.094;2022-11-30T06:14:24;7.30;95.50
7218;DHT22;3650;53.580;10.094;2022-11-30T06:16:50;7.40;95.80
7218;DHT22;3650;53.580;10.094;2022-11-30T06:19:17;7.30;95.80
7218;DHT22;3650;53.580;10.094;2022-11-30T06:21:44;7.40;96.00
7218;DHT22;3650;53.580;10.094;2022-11-30T06:24:11;7.40;96.10
7218;DHT22;3650;53.580;10.094;2022-11-30T06:26:38;7.40;96.10
7218;DHT22;3650;53.580;10.094;2022-11-30T06:29:04;7.40;96.10
7218;DHT22;3650;53.580;10.094;2022-11-30T06:31:33;7.40;96.20
7218;DHT22;3650;53.580;10.094;2022-11-30T06:33:59;7.50;96.10
7218;DHT22;3650;53.580;10.094;2022-11-30T06:36:26;7.40;95.50
7218;DHT22;3650;53.580;10.094;2022-11-30T06:38:54;7.40;95.40
7218;DHT22;3650;53.580;10.094;2022-11-30T06:41:20;7.40;95.70
7218;DHT22;3650;53.580;10.094;2022-11-30T06:43:47;7.50;95.80
7218;DHT22;3650;53.580;10.094;2022-11-30T06:46:14;7.50;95.90
7218;DHT22;3650;53.580;10.094;2022-11-30T06:48:42;7.50;95.90
7218;DHT22;3650;53.580;10.094;2022-11-30T06:51:13;7.50;95.70
7218;DHT22;3650;53.580;10.094;2022-11-30T06:53:42;7.50;95.60
7218;DHT22;3650;53.580;10.094;2022-11-30T06:56:09;7.50;95.50
7218;DHT22;3650;53.580;10.094;2022-11-30T06:58:36;7.60;95.50
7218;DHT22;3650;53.580;10.094;2022-11-30T07:01:03;7.60;95.30
7218;DHT22;3650;53.580;10.094;2022-11-30T07:03:30;7.60;95.30
7218;DHT22;3650;53.580;10.094;2022-11-30T07:05:58;7.60;95.10
7218;DHT22;3650;53.580;10.094;2022-11-30T07:08:25;7.60;95.10
7218;DHT22;3650;53.580;10.094;2022-11-30T07:10:52;7.60;95.00
7218;DHT22;3650;53.580;10.094;2022-11-30T07:13:19;7.70;94.90
7218;DHT22;3650;53.580;10.094;2022-11-30T07:15:46;7.60;94.90
7218;DHT22;3650;53.580;10.094;2022-11-30T07:18:12;7.60;94.90
7218;DHT22;3650;53.580;10.094;2022-11-30T07:20:39;7.70;94.80
7218;DHT22;3650;53.580;10.094;2022-11-30T07:23:07;7.70;94.80
7218;DHT22;3650;53.580;10.094;2022-11-30T07:25:52;7.70;94.80
7218;DHT22;3650;53.580;10.094;2022-11-30T07:28:32;7.60;94.80
7218;DHT22;3650;53.580;10.094;2022-11-30T07:30:58;7.70;94.80
7218;DHT22;3650;53.580;10.094;2022-11-30T07:33:25;7.70;94.50
7218;DHT22;3650;53.580;10.094;2022-11-30T07:35:52;7.70;94.60
7218;DHT22;3650;53.580;10.094;2022-11-30T07:38:20;7.70;94.60
7218;DHT22;3650;53.580;10.094;2022-11-30T07:40:47;7.70;94.60
7218;DHT22;3650;53.580;10.094;2022-11-30T07:43:14;7.70;94.60
7218;DHT22;3650;53.580;10.094;2022-11-30T07:45:42;7.70;94.50
7218;DHT22;3650;53.580;10.094;2022-11-30T07:48:09;7.70;94.50
7218;DHT22;3650;53.580;10.094;2022-11-30T07:50:35;7.70;94.40
7218;DHT22;3650;53.580;10.094;2022-11-30T07:53:02;7.70;94.40
7218;DHT22;3650;53.580;10.094;2022-11-30T07:55:31;7.70;94.40
7218;DHT22;3650;53.580;10.094;2022-11-30T07:57:58;7.70;94.40
7218;DHT22;3650;53.580;10.094;2022-11-30T08:00:25;7.70;94.30
7218;DHT22;3650;53.580;10.094;2022-11-30T08:02:51;7.70;94.20
7218;DHT22;3650;53.580;10.094;2022-11-30T08:05:18;7.70;94.10
7218;DHT22;3650;53.580;10.094;2022-11-30T08:07:49;7.70;94.10
7218;DHT22;3650;53.580;10.094;2022-11-30T08:10:16;7.70;94.10
7218;DHT22;3650;53.580;10.094;2022-11-30T08:12:44;7.70;94.10
7218;DHT22;3650;53.580;10.094;2022-11-30T08:15:11;7.70;94.00
7218;DHT22;3650;53.580;10.094;2022-11-30T08:17:38;7.80;93.90
7218;DHT22;3650;53.580;10.094;2022-11-30T08:20:06;7.80;93.90
7218;DHT22;3650;53.580;10.094;2022-11-30T08:22:33;7.80;93.80
7218;DHT22;3650;53.580;10.094;2022-11-30T08:25:00;7.80;93.80
7218;DHT22;3650;53.580;10.094;2022-11-30T08:27:27;7.70;93.50
7218;DHT22;3650;53.580;10.094;2022-11-30T08:29:55;7.70;93.20
7218;DHT22;3650;53.580;10.094;2022-11-30T08:32:22;7.70;93.50
7218;DHT22;3650;53.580;10.094;2022-11-30T08:34:49;7.70;93.60
7218;DHT22;3650;53.580;10.094;2022-11-30T08:37:15;7.70;93.70
7218;DHT22;3650;53.580;10.094;2022-11-30T08:39:42;7.70;93.80
7218;DHT22;3650;53.580;10.094;2022-11-30T08:42:09;7.80;93.80
7218;DHT22;3650;53.580;10.094;2022-11-30T08:44:36;7.70;93.40
7218;DHT22;3650;53.580;10.094;2022-11-30T08:47:04;7.70;93.30
7218;DHT22;3650;53.580;10.094;2022-11-30T08:49:31;7.70;93.40
7218;DHT22;3650;53.580;10.094;2022-11-30T08:51:58;7.70;93.80
7218;DHT22;3650;53.580;10.094;2022-11-30T08:54:25;7.70;94.00
7218;DHT22;3650;53.580;10.094;2022-11-30T08:56:52;7.70;94.00
7218;DHT22;3650;53.580;10.094;2022-11-30T08:59:19;7.60;93.50
7218;DHT22;3650;53.580;10.094;2022-11-30T09:01:46;7.70;94.10
7218;DHT22;3650;53.580;10.094;2022-11-30T09:04:14;7.70;94.30
7218;DHT22;3650;53.580;10.094;2022-11-30T09:06:41;7.70;94.30
7218;DHT22;3650;53.580;10.094;2022-11-30T09:09:08;7.70;94.20
7218;DHT22;3650;53.580;10.094;2022-11-30T09:11:35;7.70;94.10
7218;DHT22;3650;53.580;10.094;2022-11-30T09:14:02;7.70;94.10
7218;DHT22;3650;53.580;10.094;2022-11-30T09:16:30;7.80;94.10
7218;DHT22;3650;53.580;10.094;2022-11-30T09:18:57;7.80;94.10
7218;DHT22;3650;53.580;10.094;2022-11-30T09:21:25;7.80;93.80
7218;DHT22;3650;53.580;10.094;2022-11-30T09:23:54;7.80;93.60
7218;DHT22;3650;53.580;10.094;2022-11-30T09:26:21;7.80;93.20
7218;DHT22;3650;53.580;10.094;2022-11-30T09:28:50;7.80;93.60
7218;DHT22;3650;53.580;10.094;2022-11-30T09:31:19;7.80;93.80
7218;DHT22;3650;53.580;10.094;2022-11-30T09:33:46;7.80;93.70
7218;DHT22;3650;53.580;10.094;2022-11-30T09:36:16;7.80;93.60
7218;DHT22;3650;53.580;10.094;2022-11-30T09:38:44;7.80;93.20
7218;DHT22;3650;53.580;10.094;2022-11-30T09:41:35;7.80;93.20
7218;DHT22;3650;53.580;10.094;2022-11-30T09:44:09;7.80;93.30
7218;DHT22;3650;53.580;10.094;2022-11-30T09:46:46;7.80;93.20
7218;DHT22;3650;53.580;10.094;2022-11-30T09:49:17;7.80;93.00
7218;DHT22;3650;53.580;10.094;2022-11-30T09:51:46;7.80;93.10
7218;DHT22;3650;53.580;10.094;2022-11-30T09:54:17;7.80;93.20
7218;DHT22;3650;53.580;10.094;2022-11-30T09:56:46;7.80;93.10
7218;DHT22;3650;53.580;10.094;2022-11-30T09:59:17;7.80;93.00
7218;DHT22;3650;53.580;10.094;2022-11-30T10:01:45;7.80;93.10
7218;DHT22;3650;53.580;10.094;2022-11-30T10:04:20;7.80;93.10
7218;DHT22;3650;53.580;10.094;2022-11-30T10:06:54;7.80;93.10
7218;DHT22;3650;53.580;10.094;2022-11-30T10:09:42;7.90;93.20
7218;DHT22;3650;53.580;10.094;2022-11-30T10:12:18;7.90;93.10
7218;DHT22;3650;53.580;10.094;2022-11-30T10:15:07;7.90;93.20
7218;DHT22;3650;53.580;10.094;2022-11-30T10:17:43;7.90;93.20
7218;DHT22;3650;53.580;10.094;2022-11-30T10:20:27;7.80;92.50
7218;DHT22;3650;53.580;10.094;2022-11-30T10:23:08;7.80;93.00
7218;DHT22;3650;53.580;10.094;2022-11-30T10:25:45;7.80;93.40
7218;DHT22;3650;53.580;10.094;2022-11-30T10:28:16;7.80;93.50
7218;DHT22;3650;53.580;10.094;2022-11-30T10:30:44;7.80;93.40
7218;DHT22;3650;53.580;10.094;2022-11-30T10:33:15;7.90;93.40
7218;DHT22;3650;53.580;10.094;2022-11-30T10:35:46;7.80;93.30
7218;DHT22;3650;53.580;10.094;2022-11-30T10:38:16;7.90;93.30
7218;DHT22;3650;53.580;10.094;2022-11-30T10:40:50;7.80;93.00
7218;DHT22;3650;53.580;10.094;2022-11-30T10:43:21;7.80;92.70
7218;DHT22;3650;53.580;10.094;2022-11-30T10:45:51;7.80;92.80
7218;DHT22;3650;53.580;10.094;2022-11-30T10:48:24;7.90;93.10
7218;DHT22;3650;53.580;10.094;2022-11-30T10:50:53;7.80;93.20
7218;DHT22;3650;53.580;10.094;2022-11-30T10:53:20;7.80;93.40
7218;DHT22;3650;53.580;10.094;2022-11-30T10:55:55;7.80;93.40
7218;DHT22;3650;53.580;10.094;2022-11-30T10:58:28;7.80;93.50
7218;DHT22;3650;53.580;10.094;2022-11-30T11:01:01;7.90;93.50
7218;DHT22;3650;53.580;10.094;2022-11-30T11:03:29;7.90;93.40
7218;DHT22;3650;53.580;10.094;2022-11-30T11:06:06;7.80;93.20
7218;DHT22;3650;53.580;10.094;2022-11-30T11:08:33;7.80;93.30
7218;DHT22;3650;53.580;10.094;2022-11-30T11:11:02;7.80;93.80
7218;DHT22;3650;53.580;10.094;2022-11-30T11:13:37;7.80;94.00
7218;DHT22;3650;53.580;10.094;2022-11-30T11:16:05;7.80;93.90
7218;DHT22;3650;53.580;10.094;2022-11-30T11:18:33;7.80;94.00
7218;DHT22;3650;53.580;10.094;2022-11-30T11:21:04;7.80;94.00
7218;DHT22;3650;53.580;10.094;2022-11-30T11:23:34;7.80;93.80
7218;DHT22;3650;53.580;10.094;2022-11-30T11:26:03;7.80;93.80
7218;DHT22;3650;53.580;10.094;2022-11-30T11:28:31;7.80;93.90
7218;DHT22;3650;53.580;10.094;2022-11-30T11:30:59;7.80;94.10
7218;DHT22;3650;53.580;10.094;2022-11-30T11:33:27;7.80;94.20
7218;DHT22;3650;53.580;10.094;2022-11-30T11:35:55;7.90;94.30
7218;DHT22;3650;53.580;10.094;2022-11-30T11:38:40;7.90;94.20
7218;DHT22;3650;53.580;10.094;2022-11-30T11:41:15;7.90;94.00
7218;DHT22;3650;53.580;10.094;2022-11-30T11:43:57;7.80;93.60
7218;DHT22;3650;53.580;10.094;2022-11-30T11:46:25;7.80;93.70
7218;DHT22;3650;53.580;10.094;2022-11-30T11:48:57;7.80;93.90
7218;DHT22;3650;53.580;10.094;2022-11-30T11:51:29;7.80;94.40
7218;DHT22;3650;53.580;10.094;2022-11-30T11:53:57;7.80;94.60
7218;DHT22;3650;53.580;10.094;2022-11-30T11:56:29;7.80;94.80
7218;DHT22;3650;53.580;10.094;2022-11-30T11:58:59;7.80;94.80
7218;DHT22;3650;53.580;10.094;2022-11-30T12:01:42;7.80;94.70
7218;DHT22;3650;53.580;10.094;2022-11-30T12:04:24;7.80;94.70
7218;DHT22;3650;53.580;10.094;2022-11-30T12:06:57;7.80;94.50
7218;DHT22;3650;53.580;10.094;2022-11-30T12:09:29;7.70;94.10
7218;DHT22;3650;53.580;10.094;2022-11-30T12:11:59;7.70;94.10
7218;DHT22;3650;53.580;10.094;2022-11-30T12:14:27;7.70;94.00
7218;DHT22;3650;53.580;10.094;2022-11-30T12:17:05;7.60;94.00
7218;DHT22;3650;53.580;10.094;2022-11-30T12:19:39;7.60;94.40
7218;DHT22;3650;53.580;10.094;2022-11-30T12:22:23;7.50;94.90
7218;DHT22;3650;53.580;10.094;2022-11-30T12:25:17;7.50;94.90
7218;DHT22;3650;53.580;10.094;2022-11-30T12:27:55;7.50;95.50
7218;DHT22;3650;53.580;10.094;2022-11-30T12:30:27;7.50;95.70
7218;DHT22;3650;53.580;10.094;2022-11-30T12:33:10;7.50;95.80
7218;DHT22;3650;53.580;10.094;2022-11-30T12:35:57;7.60;95.90
7218;DHT22;3650;53.580;10.094;2022-11-30T12:38:32;7.60;95.90
7218;DHT22;3650;53.580;10.094;2022-11-30T12:41:11;7.60;95.80
7218;DHT22;3650;53.580;10.094;2022-11-30T12:43:49;7.60;95.80
7218;DHT22;3650;53.580;10.094;2022-11-30T12:46:22;7.70;95.80
7218;DHT22;3650;53.580;10.094;2022-11-30T12:49:06;7.70;95.60
7218;DHT22;3650;53.580;10.094;2022-11-30T12:51:38;7.70;95.50
7218;DHT22;3650;53.580;10.094;2022-11-30T12:54:12;7.70;95.00
7218;DHT22;3650;53.580;10.094;2022-11-30T12:56:46;7.70;94.90
7218;DHT22;3650;53.580;10.094;2022-11-30T12:59:22;7.70;94.90
7218;DHT22;3650;53.580;10.094;2022-11-30T13:02:07;7.70;94.90
7218;DHT22;3650;53.580;10.094;2022-11-30T13:04:42;7.70;94.90
7218;DHT22;3650;53.580;10.094;2022-11-30T13:07:18;7.70;94.60
7218;DHT22;3650;53.580;10.094;2022-11-30T13:09:50;7.70;94.60
7218;DHT22;3650;53.580;10.094;2022-11-30T13:12:22;7.70;94.30
7218;DHT22;3650;53.580;10.094;2022-11-30T13:14:55;7.60;94.60
7218;DHT22;3650;53.580;10.094;2022-11-30T13:17:24;7.60;94.80
7218;DHT22;3650;53.580;10.094;2022-11-30T13:19:57;7.60;94.90
7218;DHT22;3650;53.580;10.094;2022-11-30T13:22:39;7.50;95.00
7218;DHT22;3650;53.580;10.094;2022-11-30T13:25:17;7.50;95.30
7218;DHT22;3650;53.580;10.094;2022-11-30T13:27:49;7.50;95.70
7218;DHT22;3650;53.580;10.094;2022-11-30T13:30:34;7.60;96.00
7218;DHT22;3650;53.580;10.094;2022-11-30T13:36:21;7.60;96.10
7218;DHT22;3650;53.580;10.094;2022-11-30T13:39:15;7.60;96.00
7218;DHT22;3650;53.580;10.094;2022-11-30T13:41:45;7.60;95.80
7218;DHT22;3650;53.580;10.094;2022-11-30T13:44:23;7.60;95.60
7218;DHT22;3650;53.580;10.094;2022-11-30T13:46:51;7.70;95.60
7218;DHT22;3650;53.580;10.094;2022-11-30T13:49:21;7.70;95.50
7218;DHT22;3650;53.580;10.094;2022-11-30T13:51:48;7.70;95.50
7218;DHT22;3650;53.580;10.094;2022-11-30T13:54:40;7.70;95.40
7218;DHT22;3650;53.580;10.094;2022-11-30T13:57:16;7.70;95.30
7218;DHT22;3650;53.580;10.094;2022-11-30T13:59:47;7.70;95.30
7218;DHT22;3650;53.580;10.094;2022-11-30T14:05:34;7.80;95.30
7218;DHT22;3650;53.580;10.094;2022-11-30T14:08:14;7.80;95.10
7218;DHT22;3650;53.580;10.094;2022-11-30T14:10:42;7.80;95.10
7218;DHT22;3650;53.580;10.094;2022-11-30T14:13:28;7.80;95.00
7218;DHT22;3650;53.580;10.094;2022-11-30T14:15:57;7.80;94.90
7218;DHT22;3650;53.580;10.094;2022-11-30T14:18:43;7.80;94.90
7218;DHT22;3650;53.580;10.094;2022-11-30T14:21:21;7.80;94.70
7218;DHT22;3650;53.580;10.094;2022-11-30T14:23:57;7.80;94.70
7218;DHT22;3650;53.580;10.094;2022-11-30T14:26:28;7.80;94.70
7218;DHT22;3650;53.580;10.094;2022-11-30T14:29:12;7.80;94.70
7218;DHT22;3650;53.580;10.094;2022-11-30T14:31:50;7.80;94.60
7218;DHT22;3650;53.580;10.094;2022-11-30T14:34:20;7.80;94.50
7218;DHT22;3650;53.580;10.094;2022-11-30T14:36:51;7.80;94.30
7218;DHT22;3650;53.580;10.094;2022-11-30T14:39:23;7.70;94.00
7218;DHT22;3650;53.580;10.094;2022-11-30T14:41:51;7.70;94.30
7218;DHT22;3650;53.580;10.094;2022-11-30T14:44:18;7.70;94.70
7218;DHT22;3650;53.580;10.094;2022-11-30T14:46:45;7.70;94.90
7218;DHT22;3650;53.580;10.094;2022-11-30T14:49:14;7.70;94.90
7218;DHT22;3650;53.580;10.094;2022-11-30T14:51:44;7.70;94.90
7218;DHT22;3650;53.580;10.094;2022-11-30T14:54:40;7.70;94.90
7218;DHT22;3650;53.580;10.094;2022-11-30T14:57:16;7.80;94.90
7218;DHT22;3650;53.580;10.094;2022-11-30T14:59:46;7.70;94.80
7218;DHT22;3650;53.580;10.094;2022-11-30T15:02:20;7.70;94.70
7218;DHT22;3650;53.580;10.094;2022-11-30T15:04:50;7.70;94.90
7218;DHT22;3650;53.580;10.094;2022-11-30T15:07:18;7.70;94.90
7218;DHT22;3650;53.580;10.094;2022-11-30T15:09:48;7.70;95.00
7218;DHT22;3650;53.580;10.094;2022-11-30T15:12:19;7.80;94.90
7218;DHT22;3650;53.580;10.094;2022-11-30T15:15:09;7.70;94.70
7218;DHT22;3650;53.580;10.094;2022-11-30T15:17:51;7.70;94.90
7218;DHT22;3650;53.580;10.094;2022-11-30T15:20:24;7.70;95.20
7218;DHT22;3650;53.580;10.094;2022-11-30T15:22:53;7.70;95.40
7218;DHT22;3650;53.580;10.094;2022-11-30T15:25:24;7.70;95.50
7218;DHT22;3650;53.580;10.094;2022-11-30T15:27:54;7.70;95.50
7218;DHT22;3650;53.580;10.094;2022-11-30T15:30:21;7.70;95.40
7218;DHT22;3650;53.580;10.094;2022-11-30T15:32:50;7.70;95.30
7218;DHT22;3650;53.580;10.094;2022-11-30T15:35:20;7.70;95.30
7218;DHT22;3650;53.580;10.094;2022-11-30T15:37:48;7.70;95.30
7218;DHT22;3650;53.580;10.094;2022-11-30T15:40:21;7.70;95.00
7218;DHT22;3650;53.580;10.094;2022-11-30T15:42:50;7.70;95.00
7218;DHT22;3650;53.580;10.094;2022-11-30T15:45:21;7.70;95.30
7218;DHT22;3650;53.580;10.094;2022-11-30T15:47:48;7.70;95.30
7218;DHT22;3650;53.580;10.094;2022-11-30T15:50:36;7.70;95.20
7218;DHT22;3650;53.580;10.094;2022-11-30T15:53:22;7.70;95.30
7218;DHT22;3650;53.580;10.094;2022-11-30T15:55:52;7.70;95.30
7218;DHT22;3650;53.580;10.094;2022-11-30T15:58:25;7.70;95.30
7218;DHT22;3650;53.580;10.094;2022-11-30T16:01:00;7.70;95.50
7218;DHT22;3650;53.580;10.094;2022-11-30T16:03:30;7.70;95.70
7218;DHT22;3650;53.580;10.094;2022-11-30T16:05:58;7.70;95.60
7218;DHT22;3650;53.580;10.094;2022-11-30T16:08:25;7.70;95.60
7218;DHT22;3650;53.580;10.094;2022-11-30T16:10:53;7.70;95.50
7218;DHT22;3650;53.580;10.094;2022-11-30T16:13:21;7.70;95.40
7218;DHT22;3650;53.580;10.094;2022-11-30T16:15:49;7.70;95.30
7218;DHT22;3650;53.580;10.094;2022-11-30T16:18:18;7.70;94.90
7218;DHT22;3650;53.580;10.094;2022-11-30T16:20:48;7.70;95.10
7218;DHT22;3650;53.580;10.094;2022-11-30T16:23:16;7.70;95.20
7218;DHT22;3650;53.580;10.094;2022-11-30T16:25:46;7.70;95.30
7218;DHT22;3650;53.580;10.094;2022-11-30T16:28:15;7.70;95.40
7218;DHT22;3650;53.580;10.094;2022-11-30T16:30:43;7.70;95.40